Time;durP1;ratioP1;P1;durP2;ratioP2;P2;SDS_P1;SDS_P2;PMS_P1;PMS_P2;Temp;Humidity;BMP_temperature;BMP_pressure;BME280_temperature;BME280_humidity;BME280_pressure;Samples;Min_cycle;Max_cycle;Signal;HPM_P1;HPM_P2
2022/12/15 00:38:53;;;;;;;8.48;1.08;;;;;;;;;;5046551;28;20576;-72
2022/12/15 00:41:21;;;;;;;6.45;1.00;;;;;;;;;;5064196;28;20060;-72
2022/12/15 00:43:48;;;;;;;5.43;1.15;;;;;;;;;;5063981;28;20057;-72
2022/12/15 00:49:00;;;;;;;6.03;1.13;;;;;;;;;;5067847;28;20044;-72
2022/12/15 01:21:45;;;;;;;9.30;1.00;;;;;;;;;;5075518;28;20075;-72
2022/12/15 01:24:12;;;;;;;6.53;1.17;;;;;;;;;;5071005;28;20407;-72
2022/12/15 01:26:41;;;;;;;5.60;0.80;;;;;;;;;;5065970;28;20045;-72
2022/12/15 01:29:08;;;;;;;8.75;1.10;;;;;;;;;;5071541;28;20055;-72
2022/12/15 01:31:35;;;;;;;16.98;1.10;;;;;;;;;;5061036;28;20063;-72
2022/12/15 01:34:03;;;;;;;14.30;1.13;;;;;;;;;;5052843;28;20450;-72
2022/12/15 01:36:30;;;;;;;3.65;0.63;;;;;;;;;;5058160;28;20053;-71
2022/12/15 01:38:57;;;;;;;5.38;0.50;;;;;;;;;;5070812;28;20060;-71
2022/12/15 01:41:24;;;;;;;4.88;0.50;;;;;;;;;;5065772;28;20376;-72
2022/12/15 01:43:52;;;;;;;9.80;0.82;;;;;;;;;;5074622;28;20158;-72
2022/12/15 01:46:20;;;;;;;4.28;0.30;;;;;;;;;;5065553;28;20052;-71
2022/12/15 01:48:48;;;;;;;4.75;0.40;;;;;;;;;;5046075;28;20471;-72
2022/12/15 01:51:18;;;;;;;2.75;0.35;;;;;;;;;;5066029;28;20060;-72
2022/12/15 01:53:48;;;;;;;10.07;0.43;;;;;;;;;;5063707;28;20052;-71
2022/12/15 01:56:15;;;;;;;6.47;0.40;;;;;;;;;;5069689;28;20052;-71
2022/12/15 01:58:44;;;;;;;6.13;0.52;;;;;;;;;;5064445;28;20067;-72
2022/12/15 02:01:12;;;;;;;4.80;0.32;;;;;;;;;;5056938;28;20048;-72
2022/12/15 02:06:16;;;;;;;3.35;0.60;;;;;;;;;;5788491;22;20053;-72
2022/12/15 02:08:45;;;;;;;5.60;0.60;;;;;;;;;;5003571;28;20052;-72
2022/12/15 02:11:31;;;;;;;3.15;0.40;;;;;;;;;;5003161;28;20645;-73
2022/12/15 02:14:00;;;;;;;3.90;0.55;;;;;;;;;;5002082;28;20050;-72
2022/12/15 02:16:36;;;;;;;5.18;0.43;;;;;;;;;;5004013;28;20081;-72
2022/12/15 02:19:09;;;;;;;6.07;0.35;;;;;;;;;;5000205;28;20069;-73
2022/12/15 02:21:39;;;;;;;7.68;0.50;;;;;;;;;;5001583;28;20065;-73
2022/12/15 02:24:30;;;;;;;8.20;0.70;;;;;;;;;;5004022;28;20053;-72
2022/12/15 02:27:10;;;;;;;5.07;0.52;;;;;;;;;;4982378;28;20053;-72
2022/12/15 02:29:56;;;;;;;13.32;1.85;;;;;;;;;;5002737;28;20046;-73
2022/12/15 02:32:26;;;;;;;10.10;0.90;;;;;;;;;;5000350;28;20049;-72
2022/12/15 02:34:56;;;;;;;9.80;0.80;;;;;;;;;;5003528;28;20053;-72
2022/12/15 02:37:25;;;;;;;12.52;0.95;;;;;;;;;;5001418;28;20042;-72
2022/12/15 02:39:53;;;;;;;3.85;1.02;;;;;;;;;;5000837;28;20054;-73
2022/12/15 02:42:20;;;;;;;10.43;1.38;;;;;;;;;;5001066;28;20415;-73
2022/12/15 02:44:49;;;;;;;5.78;0.80;;;;;;;;;;5003687;28;20505;-72
2022/12/15 02:47:20;;;;;;;6.05;0.77;;;;;;;;;;5003465;28;20496;-73
2022/12/15 02:49:58;;;;;;;14.52;0.98;;;;;;;;;;4996978;28;20054;-73
2022/12/15 02:52:31;;;;;;;8.88;1.30;;;;;;;;;;5003460;28;20050;-73
2022/12/15 02:55:04;;;;;;;14.63;0.75;;;;;;;;;;5000818;28;20137;-73
2022/12/15 02:57:35;;;;;;;4.82;0.50;;;;;;;;;;5000531;28;20057;-73
2022/12/15 03:00:06;;;;;;;10.45;0.68;;;;;;;;;;5003336;28;20057;-73
2022/12/15 03:02:36;;;;;;;8.15;0.60;;;;;;;;;;5003124;28;20053;-73
2022/12/15 03:05:05;;;;;;;7.93;1.17;;;;;;;;;;5003055;28;20133;-73
2022/12/15 03:07:32;;;;;;;3.42;0.52;;;;;;;;;;4998549;28;20420;-73
2022/12/15 03:10:00;;;;;;;6.47;0.63;;;;;;;;;;5003251;28;20054;-73
2022/12/15 03:12:27;;;;;;;7.85;1.17;;;;;;;;;;5000957;28;20042;-73
2022/12/15 03:14:55;;;;;;;7.07;0.50;;;;;;;;;;5001619;28;20054;-73
2022/12/15 03:17:22;;;;;;;5.75;0.47;;;;;;;;;;5002581;28;20073;-73
2022/12/15 03:19:49;;;;;;;4.95;0.52;;;;;;;;;;5003209;28;20064;-73
2022/12/15 03:22:18;;;;;;;4.15;0.50;;;;;;;;;;5001658;28;20050;-73
2022/12/15 03:24:45;;;;;;;11.00;0.60;;;;;;;;;;5000709;28;20053;-73
2022/12/15 03:27:12;;;;;;;4.85;0.38;;;;;;;;;;5004023;28;20049;-73
2022/12/15 03:29:40;;;;;;;7.25;0.68;;;;;;;;;;5002211;28;20053;-73
2022/12/15 03:32:07;;;;;;;3.95;0.40;;;;;;;;;;5001735;28;20592;-73
2022/12/15 03:34:34;;;;;;;8.77;0.80;;;;;;;;;;5003583;28;20069;-72
2022/12/15 03:37:01;;;;;;;4.57;0.40;;;;;;;;;;5001743;28;20404;-72
2022/12/15 03:39:30;;;;;;;5.72;0.35;;;;;;;;;;5001552;28;20053;-73
2022/12/15 03:41:57;;;;;;;8.55;0.82;;;;;;;;;;5002942;28;20532;-73
2022/12/15 03:44:24;;;;;;;9.25;0.60;;;;;;;;;;4991768;28;20058;-73
2022/12/15 03:46:52;;;;;;;7.75;1.30;;;;;;;;;;5003113;28;20432;-73
2022/12/15 03:49:19;;;;;;;8.25;0.68;;;;;;;;;;5002605;28;20061;-73
2022/12/15 03:51:46;;;;;;;7.53;0.43;;;;;;;;;;5000474;28;20050;-73
2022/12/15 03:54:14;;;;;;;10.65;0.65;;;;;;;;;;5002868;28;20384;-73
2022/12/15 03:56:43;;;;;;;12.57;1.00;;;;;;;;;;5002265;28;20077;-73
2022/12/15 03:59:10;;;;;;;7.45;0.73;;;;;;;;;;5001949;28;20054;-73
2022/12/15 04:01:37;;;;;;;7.60;0.75;;;;;;;;;;4994552;28;20058;-73
2022/12/15 04:04:05;;;;;;;6.72;0.93;;;;;;;;;;5001817;28;20054;-73
2022/12/15 04:06:32;;;;;;;5.75;0.47;;;;;;;;;;5002672;28;20495;-73
2022/12/15 04:08:59;;;;;;;11.70;1.00;;;;;;;;;;5001133;28;20048;-73
2022/12/15 04:11:27;;;;;;;4.30;0.50;;;;;;;;;;5000397;28;20057;-73
2022/12/15 04:13:55;;;;;;;8.88;0.90;;;;;;;;;;5000161;28;20053;-73
2022/12/15 04:16:23;;;;;;;12.65;0.75;;;;;;;;;;4998954;28;20748;-73
2022/12/15 04:20:07;;;;;;;9.55;0.68;;;;;;;;;;4994749;28;20049;-73
2022/12/15 04:21:37;;;;;;;8.27;1.02;;;;;;;;;;5001136;28;20074;-73
2022/12/15 05:32:51;;;;;;;6.95;0.75;;;;;;;;;;4997360;28;20460;-73
2022/12/15 05:35:19;;;;;;;8.65;1.00;;;;;;;;;;4999730;28;20054;-73
2022/12/15 05:37:46;;;;;;;13.20;0.93;;;;;;;;;;5001560;28;20061;-73
2022/12/15 05:40:14;;;;;;;9.35;0.93;;;;;;;;;;5003339;28;20401;-73
2022/12/15 05:42:41;;;;;;;10.30;0.90;;;;;;;;;;4999319;28;20501;-73
2022/12/15 05:45:10;;;;;;;7.78;0.98;;;;;;;;;;5004415;28;20049;-73
2022/12/15 05:47:37;;;;;;;8.68;0.93;;;;;;;;;;5004882;28;20058;-73
2022/12/15 05:50:04;;;;;;;11.32;1.20;;;;;;;;;;5003103;28;20384;-73
2022/12/15 05:52:33;;;;;;;3.90;0.52;;;;;;;;;;5003332;28;20471;-73
2022/12/15 05:55:00;;;;;;;7.80;0.82;;;;;;;;;;4994277;28;20054;-73
2022/12/15 05:57:27;;;;;;;7.68;0.80;;;;;;;;;;4998172;28;20045;-73
2022/12/15 05:59:55;;;;;;;14.95;1.20;;;;;;;;;;4996485;28;20041;-73
2022/12/15 06:02:22;;;;;;;8.45;1.23;;;;;;;;;;4997365;28;20208;-72
2022/12/15 06:04:49;;;;;;;12.27;1.00;;;;;;;;;;4998610;28;20050;-73
2022/12/15 06:07:16;;;;;;;8.07;0.77;;;;;;;;;;4994203;28;20069;-73
2022/12/15 06:09:45;;;;;;;9.85;0.70;;;;;;;;;;4995468;28;20046;-73
2022/12/15 06:12:12;;;;;;;9.60;0.93;;;;;;;;;;4998566;28;20050;-73
2022/12/15 06:14:39;;;;;;;11.02;1.15;;;;;;;;;;4997045;28;20065;-73
2022/12/15 06:17:07;;;;;;;16.95;1.85;;;;;;;;;;4997928;28;20412;-73
2022/12/15 06:19:34;;;;;;;10.63;1.20;;;;;;;;;;4996413;28;20516;-73
2022/12/15 06:22:01;;;;;;;17.10;1.30;;;;;;;;;;5002940;28;20046;-73
2022/12/15 06:24:28;;;;;;;10.70;1.33;;;;;;;;;;5002932;28;20100;-73
2022/12/15 06:26:58;;;;;;;14.68;1.00;;;;;;;;;;5003112;28;20073;-73
2022/12/15 06:29:25;;;;;;;13.52;1.15;;;;;;;;;;5001360;28;20108;-73
2022/12/15 06:31:52;;;;;;;12.23;1.23;;;;;;;;;;4997620;28;20050;-73
2022/12/15 06:34:20;;;;;;;11.93;1.10;;;;;;;;;;4998767;28;20468;-73
2022/12/15 06:36:47;;;;;;;13.95;1.13;;;;;;;;;;5002362;28;20133;-73
2022/12/15 06:39:15;;;;;;;11.45;1.05;;;;;;;;;;5000778;28;20050;-73
2022/12/15 06:41:44;;;;;;;8.70;0.90;;;;;;;;;;5007460;28;20053;-73
2022/12/15 06:44:14;;;;;;;27.02;2.30;;;;;;;;;;5008687;28;20057;-71
2022/12/15 06:46:42;;;;;;;16.98;1.42;;;;;;;;;;5007991;28;20119;-71
2022/12/15 06:49:09;;;;;;;12.00;1.15;;;;;;;;;;5018922;28;20128;-72
2022/12/15 06:51:36;;;;;;;10.75;1.30;;;;;;;;;;4996604;28;20057;-72
2022/12/15 06:54:04;;;;;;;11.15;0.95;;;;;;;;;;5002717;28;20057;-72
2022/12/15 06:56:34;;;;;;;15.20;1.10;;;;;;;;;;5008892;28;20149;-71
2022/12/15 06:59:02;;;;;;;13.35;1.10;;;;;;;;;;5004219;28;20456;-72
2022/12/15 07:01:31;;;;;;;10.65;1.33;;;;;;;;;;4999486;28;20627;-72
2022/12/15 07:04:00;;;;;;;16.45;1.40;;;;;;;;;;5000848;28;20061;-72
2022/12/15 07:06:28;;;;;;;17.08;1.33;;;;;;;;;;5002338;28;20061;-71
2022/12/15 07:08:56;;;;;;;11.18;1.10;;;;;;;;;;5001376;28;20064;-72
2022/12/15 07:11:23;;;;;;;11.38;1.52;;;;;;;;;;5001794;28;20057;-71
2022/12/15 07:13:51;;;;;;;14.73;1.85;;;;;;;;;;5003690;28;20057;-72
2022/12/15 07:16:18;;;;;;;14.65;2.00;;;;;;;;;;5003202;28;20154;-71
2022/12/15 07:18:47;;;;;;;7.53;1.60;;;;;;;;;;5003187;28;20057;-71
2022/12/15 07:21:14;;;;;;;10.90;1.42;;;;;;;;;;5002891;28;20050;-72
2022/12/15 07:23:42;;;;;;;10.82;1.33;;;;;;;;;;5003274;28;20050;-71
2022/12/15 07:26:09;;;;;;;12.52;1.63;;;;;;;;;;5002536;28;20152;-71
2022/12/15 07:28:37;;;;;;;10.68;1.25;;;;;;;;;;5000535;28;20381;-72
2022/12/15 07:31:06;;;;;;;10.55;1.25;;;;;;;;;;5000255;28;20057;-72
2022/12/15 07:33:33;;;;;;;5.10;0.90;;;;;;;;;;5001779;28;20053;-72
2022/12/15 07:36:02;;;;;;;19.00;1.38;;;;;;;;;;4997655;28;20069;-72
2022/12/15 07:38:29;;;;;;;11.13;1.13;;;;;;;;;;5030724;28;20050;-71
2022/12/15 07:41:00;;;;;;;12.63;1.10;;;;;;;;;;5000666;28;20096;-71
2022/12/15 07:43:29;;;;;;;15.48;1.48;;;;;;;;;;4997660;28;20114;-71
2022/12/15 07:45:56;;;;;;;13.60;1.83;;;;;;;;;;5001829;28;20050;-72
2022/12/15 07:48:23;;;;;;;13.63;1.95;;;;;;;;;;4997102;28;20058;-71
2022/12/15 07:50:56;;;;;;;7.88;0.88;;;;;;;;;;4996406;28;20492;-71
2022/12/15 07:53:25;;;;;;;12.23;1.30;;;;;;;;;;5000449;28;20062;-71
2022/12/15 07:55:57;;;;;;;12.07;1.30;;;;;;;;;;5002427;28;20049;-72
2022/12/15 07:58:24;;;;;;;16.25;1.17;;;;;;;;;;4994413;28;20131;-71
2022/12/15 08:00:52;;;;;;;15.18;1.30;;;;;;;;;;4993980;28;20042;-72
2022/12/15 08:03:19;;;;;;;12.98;1.48;;;;;;;;;;4993545;28;20079;-71
2022/12/15 08:05:46;;;;;;;12.18;1.25;;;;;;;;;;4996720;28;20817;-71
2022/12/15 08:08:14;;;;;;;8.43;1.30;;;;;;;;;;4995414;28;20208;-71
2022/12/15 08:10:42;;;;;;;9.05;1.10;;;;;;;;;;4995722;28;20056;-72
2022/12/15 08:13:10;;;;;;;16.35;1.58;;;;;;;;;;5000720;28;20511;-72
2022/12/15 08:15:37;;;;;;;11.52;1.08;;;;;;;;;;4999059;28;20046;-71
2022/12/15 08:18:05;;;;;;;11.05;1.45;;;;;;;;;;4995774;28;20054;-71
2022/12/15 08:20:34;;;;;;;10.68;1.05;;;;;;;;;;5001606;28;20120;-72
2022/12/15 08:23:01;;;;;;;17.20;0.90;;;;;;;;;;5006524;28;20160;-72
2022/12/15 08:25:29;;;;;;;15.43;1.38;;;;;;;;;;5006218;28;20045;-72
2022/12/15 08:27:57;;;;;;;9.77;1.27;;;;;;;;;;5005408;28;20059;-72
2022/12/15 08:30:24;;;;;;;7.45;1.23;;;;;;;;;;5007092;28;20492;-72
2022/12/15 08:32:52;;;;;;;12.60;1.33;;;;;;;;;;5000664;28;20061;-73
2022/12/15 08:35:19;;;;;;;9.88;0.98;;;;;;;;;;5003239;28;20054;-70
2022/12/15 08:37:46;;;;;;;12.32;1.42;;;;;;;;;;5002378;28;20153;-70
2022/12/15 08:40:14;;;;;;;15.85;1.20;;;;;;;;;;5004131;28;20037;-70
2022/12/15 08:42:41;;;;;;;10.55;1.75;;;;;;;;;;5006544;28;20054;-71
2022/12/15 08:45:11;;;;;;;12.65;1.67;;;;;;;;;;5005096;28;20056;-74
2022/12/15 08:47:38;;;;;;;8.05;1.13;;;;;;;;;;5004417;28;20050;-72
2022/12/15 08:50:06;;;;;;;7.38;1.75;;;;;;;;;;5006677;28;20053;-72
2022/12/15 08:52:34;;;;;;;7.20;0.90;;;;;;;;;;5005827;28;20050;-71
2022/12/15 08:55:01;;;;;;;10.15;1.30;;;;;;;;;;5002380;28;20050;-71
2022/12/15 08:57:28;;;;;;;6.70;1.35;;;;;;;;;;5001476;28;20061;-72
2022/12/15 08:59:55;;;;;;;13.30;1.48;;;;;;;;;;5004612;28;20381;-73
2022/12/15 09:02:24;;;;;;;14.77;1.50;;;;;;;;;;5004491;28;20108;-72
2022/12/15 09:04:51;;;;;;;7.82;1.38;;;;;;;;;;5002324;28;20056;-73
2022/12/15 09:07:18;;;;;;;8.60;1.05;;;;;;;;;;5001743;28;20515;-72
2022/12/15 09:09:46;;;;;;;11.45;1.45;;;;;;;;;;5002756;28;20509;-72
2022/12/15 09:12:13;;;;;;;14.02;1.65;;;;;;;;;;5002137;28;20512;-71
2022/12/15 09:14:40;;;;;;;14.50;1.50;;;;;;;;;;5002509;28;20620;-70
2022/12/15 09:17:08;;;;;;;8.20;1.23;;;;;;;;;;5003893;28;20050;-72
2022/12/15 09:19:36;;;;;;;18.40;2.55;;;;;;;;;;5005879;28;20065;-71
2022/12/15 09:22:06;;;;;;;12.98;1.50;;;;;;;;;;5005766;28;20049;-72
2022/12/15 09:24:34;;;;;;;12.65;1.30;;;;;;;;;;5008310;28;20405;-72
2022/12/15 09:27:01;;;;;;;15.45;1.33;;;;;;;;;;5004648;28;20050;-72
2022/12/15 09:29:29;;;;;;;11.25;1.65;;;;;;;;;;5003652;28;20508;-72
2022/12/15 09:31:56;;;;;;;14.07;1.52;;;;;;;;;;5004306;28;20061;-72
2022/12/15 09:34:23;;;;;;;16.98;1.52;;;;;;;;;;5004915;28;20076;-72
2022/12/15 09:36:52;;;;;;;9.05;0.95;;;;;;;;;;5003415;28;20108;-72
2022/12/15 09:39:19;;;;;;;12.55;1.60;;;;;;;;;;4999514;28;20042;-72
2022/12/15 09:41:50;;;;;;;12.55;2.00;;;;;;;;;;4999951;28;20200;-72
2022/12/15 09:44:18;;;;;;;13.57;1.42;;;;;;;;;;5000834;28;20053;-72
2022/12/15 09:46:51;;;;;;;9.18;1.67;;;;;;;;;;5002498;28;20101;-73
2022/12/15 09:49:31;;;;;;;14.40;1.73;;;;;;;;;;5003463;28;20080;-73
2022/12/15 09:52:03;;;;;;;8.77;1.00;;;;;;;;;;5002102;28;20054;-73
2022/12/15 09:54:34;;;;;;;13.20;1.45;;;;;;;;;;4999283;28;20069;-72
2022/12/15 09:57:05;;;;;;;11.15;1.80;;;;;;;;;;4992309;28;20054;-73
2022/12/15 09:59:34;;;;;;;8.88;1.30;;;;;;;;;;4995564;28;20046;-72
2022/12/15 10:02:13;;;;;;;10.63;2.20;;;;;;;;;;4995804;28;20061;-72
2022/12/15 10:04:46;;;;;;;10.18;1.70;;;;;;;;;;5002081;28;20054;-73
2022/12/15 10:07:19;;;;;;;6.93;1.33;;;;;;;;;;5003400;28;20054;-72
2022/12/15 10:09:46;;;;;;;10.80;1.27;;;;;;;;;;5009940;28;20080;-73
2022/12/15 10:12:17;;;;;;;10.23;1.30;;;;;;;;;;5003710;28;20751;-73
2022/12/15 10:14:46;;;;;;;10.65;1.20;;;;;;;;;;5003133;28;20064;-73
2022/12/15 10:17:21;;;;;;;8.35;1.33;;;;;;;;;;5003687;28;20088;-73
2022/12/15 10:19:53;;;;;;;13.73;2.00;;;;;;;;;;5003167;28;20100;-73
2022/12/15 10:22:24;;;;;;;11.20;1.27;;;;;;;;;;5002837;28;20136;-73
2022/12/15 10:24:51;;;;;;;8.20;1.13;;;;;;;;;;5006339;28;20451;-74
2022/12/15 10:27:28;;;;;;;10.82;1.50;;;;;;;;;;5003217;28;20542;-73
2022/12/15 10:30:00;;;;;;;11.95;1.45;;;;;;;;;;5003171;28;20109;-74
2022/12/15 10:32:31;;;;;;;9.85;2.40;;;;;;;;;;5003898;28;20171;-74
2022/12/15 10:34:59;;;;;;;9.57;1.35;;;;;;;;;;5001014;28;20046;-74
2022/12/15 10:37:27;;;;;;;6.82;1.40;;;;;;;;;;5003952;28;20141;-74
2022/12/15 10:39:55;;;;;;;14.70;2.35;;;;;;;;;;4997118;28;20042;-75
2022/12/15 10:42:23;;;;;;;6.28;1.23;;;;;;;;;;5002580;28;20057;-75
2022/12/15 10:44:51;;;;;;;8.13;1.40;;;;;;;;;;5004690;28;20062;-75
2022/12/15 10:47:20;;;;;;;18.85;1.73;;;;;;;;;;5003984;28;20525;-75
2022/12/15 10:49:47;;;;;;;14.07;1.42;;;;;;;;;;4997754;28;20591;-75
2022/12/15 10:52:23;;;;;;;7.95;1.00;;;;;;;;;;5001645;28;20046;-75
2022/12/15 10:54:52;;;;;;;7.68;1.20;;;;;;;;;;5003195;28;20770;-76
2022/12/15 10:57:21;;;;;;;11.55;1.10;;;;;;;;;;5004498;28;20057;-76
2022/12/15 10:59:49;;;;;;;14.50;1.35;;;;;;;;;;5003296;28;20056;-76
2022/12/15 11:02:35;;;;;;;13.73;1.30;;;;;;;;;;4995752;28;20065;-78
2022/12/15 11:05:04;;;;;;;6.45;1.23;;;;;;;;;;5004115;28;20057;-77
2022/12/15 11:07:36;;;;;;;6.93;1.30;;;;;;;;;;5002591;28;20061;-77
2022/12/15 11:10:15;;;;;;;7.15;0.95;;;;;;;;;;5003278;28;20145;-76
2022/12/15 11:12:51;;;;;;;9.27;1.00;;;;;;;;;;5031556;28;20057;-77
2022/12/15 11:15:50;;;;;;;8.05;1.60;;;;;;;;;;5003033;28;20050;-77
2022/12/15 11:18:30;;;;;;;15.70;1.60;;;;;;;;;;4949804;28;20110;-76
2022/12/15 11:21:03;;;;;;;10.38;1.38;;;;;;;;;;4994422;28;20736;-77
2022/12/15 11:23:30;;;;;;;;;;;;;;;;;;5006183;28;20719;-76
2022/12/15 11:26:01;;;;;;;9.73;1.13;;;;;;;;;;5002039;28;19925;-77
2022/12/15 11:28:33;;;;;;;13.43;1.38;;;;;;;;;;4999633;28;20157;-76
2022/12/15 11:31:03;;;;;;;9.65;1.10;;;;;;;;;;5002595;28;20046;-76
2022/12/15 11:33:31;;;;;;;10.55;1.42;;;;;;;;;;5003404;28;20057;-76
2022/12/15 11:36:06;;;;;;;8.48;0.95;;;;;;;;;;5002838;28;20416;-76
2022/12/15 11:38:39;;;;;;;13.80;1.55;;;;;;;;;;5003316;28;20053;-77
2022/12/15 11:41:11;;;;;;;18.13;1.93;;;;;;;;;;5001791;28;20104;-77
2022/12/15 11:43:49;;;;;;;9.60;1.67;;;;;;;;;;5036226;28;20304;-76
2022/12/15 11:46:21;;;;;;;9.10;1.00;;;;;;;;;;5002400;28;20488;-76
2022/12/15 11:48:54;;;;;;;13.52;1.35;;;;;;;;;;4999760;28;20054;-76
2022/12/15 11:51:24;;;;;;;20.75;1.33;;;;;;;;;;5001027;28;20077;-77
2022/12/15 11:53:57;;;;;;;8.25;1.42;;;;;;;;;;5003636;28;20057;-75
2022/12/15 11:56:29;;;;;;;12.27;1.63;;;;;;;;;;5007202;28;20061;-75
2022/12/15 11:59:11;;;;;;;9.40;1.30;;;;;;;;;;5006549;28;20293;-76
2022/12/15 12:01:52;;;;;;;12.70;1.20;;;;;;;;;;5000693;28;20375;-75
2022/12/15 12:04:23;;;;;;;8.73;0.98;;;;;;;;;;5005440;28;20046;-75
2022/12/15 12:06:57;;;;;;;6.28;0.98;;;;;;;;;;5008547;28;20510;-75
2022/12/15 12:09:32;;;;;;;9.90;1.30;;;;;;;;;;5006365;28;20147;-76
2022/12/15 12:12:05;;;;;;;9.27;1.00;;;;;;;;;;5035926;28;20054;-75
2022/12/15 12:14:39;;;;;;;9.50;1.77;;;;;;;;;;5006868;28;20239;-75
2022/12/15 12:17:09;;;;;;;17.65;1.85;;;;;;;;;;5022566;28;20053;-75
2022/12/15 12:19:38;;;;;;;11.57;1.60;;;;;;;;;;5006580;28;20373;-76
2022/12/15 12:22:08;;;;;;;11.57;1.52;;;;;;;;;;5006717;28;20053;-75
2022/12/15 12:24:39;;;;;;;8.80;1.33;;;;;;;;;;5007309;28;20057;-75
2022/12/15 12:27:11;;;;;;;14.23;1.60;;;;;;;;;;5002198;28;20385;-76
2022/12/15 12:29:40;;;;;;;10.90;1.50;;;;;;;;;;4997661;28;20115;-76
2022/12/15 12:32:12;;;;;;;12.40;2.08;;;;;;;;;;5007167;28;20089;-75
2022/12/15 12:34:46;;;;;;;6.63;1.20;;;;;;;;;;5004750;28;20160;-76
2022/12/15 12:37:16;;;;;;;13.57;1.63;;;;;;;;;;5006978;28;20519;-77
2022/12/15 12:39:43;;;;;;;6.93;0.93;;;;;;;;;;5006086;28;20407;-76
2022/12/15 12:42:15;;;;;;;14.15;1.40;;;;;;;;;;5005682;28;20099;-75
2022/12/15 12:44:42;;;;;;;12.80;1.35;;;;;;;;;;5005494;28;20053;-75
2022/12/15 12:47:14;;;;;;;8.65;1.63;;;;;;;;;;5001188;28;20457;-75
2022/12/15 12:49:44;;;;;;;12.07;1.42;;;;;;;;;;5005642;28;20531;-76
2022/12/15 12:52:19;;;;;;;8.77;0.95;;;;;;;;;;5006509;28;20050;-76
2022/12/15 12:54:57;;;;;;;10.70;1.38;;;;;;;;;;5005264;28;20168;-76
2022/12/15 12:57:31;;;;;;;7.63;1.20;;;;;;;;;;5004830;28;20057;-76
2022/12/15 12:59:59;;;;;;;10.38;1.48;;;;;;;;;;5004204;28;20061;-76
2022/12/15 13:02:45;;;;;;;7.30;1.02;;;;;;;;;;5005791;28;20056;-76
2022/12/15 13:05:24;;;;;;;8.30;1.52;;;;;;;;;;5003006;28;20058;-76
2022/12/15 13:07:54;;;;;;;6.75;1.10;;;;;;;;;;5004912;28;20069;-75
2022/12/15 13:10:22;;;;;;;7.93;1.65;;;;;;;;;;5009053;28;20484;-76
2022/12/15 13:12:51;;;;;;;9.00;1.40;;;;;;;;;;5009475;28;20054;-76
2022/12/15 13:15:26;;;;;;;5.35;1.00;;;;;;;;;;5003870;28;20385;-75
2022/12/15 13:17:55;;;;;;;12.45;1.40;;;;;;;;;;5008048;28;20061;-75
2022/12/15 13:20:24;;;;;;;9.10;1.20;;;;;;;;;;5004399;28;20053;-76
2022/12/15 13:22:52;;;;;;;6.75;1.17;;;;;;;;;;5008618;28;20308;-76
2022/12/15 13:25:35;;;;;;;17.13;1.92;;;;;;;;;;5006604;28;20053;-76
2022/12/15 13:28:16;;;;;;;9.65;1.42;;;;;;;;;;5001663;28;20787;-77
2022/12/15 13:30:59;;;;;;;9.32;1.10;;;;;;;;;;5003199;28;20052;-76
2022/12/15 13:33:26;;;;;;;9.48;1.40;;;;;;;;;;5017127;28;20050;-78
2022/12/15 13:35:53;;;;;;;9.88;1.30;;;;;;;;;;5005221;28;20407;-79
2022/12/15 13:38:21;;;;;;;17.20;1.73;;;;;;;;;;5002814;28;20046;-79
2022/12/15 13:40:52;;;;;;;29.90;1.83;;;;;;;;;;5004972;28;20046;-80
2022/12/15 13:43:38;;;;;;;15.25;1.58;;;;;;;;;;5005588;28;20065;-81
2022/12/15 13:46:11;;;;;;;6.80;1.25;;;;;;;;;;5005490;28;21142;-82
2022/12/15 13:48:40;;;;;;;22.77;2.03;;;;;;;;;;5004748;28;20068;-83
2022/12/15 13:51:19;;;;;;;11.57;1.42;;;;;;;;;;5004232;28;20058;-82
2022/12/15 13:53:48;;;;;;;14.18;1.65;;;;;;;;;;5006814;28;20057;-81
2022/12/15 13:56:22;;;;;;;7.95;0.93;;;;;;;;;;5006570;28;20042;-79
2022/12/15 13:58:49;;;;;;;;;;;;;;;;;;5008415;28;20065;-77
2022/12/15 14:01:22;;;;;;;6.28;0.50;;;;;;;;;;5004038;28;20031;-76
2022/12/15 14:04:00;;;;;;;13.38;0.85;;;;;;;;;;5006198;28;20101;-77
2022/12/15 14:06:31;;;;;;;6.97;0.77;;;;;;;;;;5005311;28;20058;-75
2022/12/15 14:09:00;;;;;;;6.28;0.80;;;;;;;;;;5005891;28;20105;-76
2022/12/15 14:11:30;;;;;;;8.50;0.80;;;;;;;;;;5003118;28;20515;-75
2022/12/15 14:13:59;;;;;;;2.47;0.60;;;;;;;;;;5007611;28;20515;-75
2022/12/15 14:16:30;;;;;;;6.05;0.52;;;;;;;;;;5002356;28;20042;-75
2022/12/15 14:19:05;;;;;;;4.68;0.50;;;;;;;;;;5004718;28;20058;-76
2022/12/15 14:21:32;;;;;;;6.70;1.25;;;;;;;;;;4999915;28;20052;-76
2022/12/15 14:24:00;;;;;;;5.03;0.95;;;;;;;;;;5008723;28;20057;-75
2022/12/15 14:26:30;;;;;;;12.05;0.98;;;;;;;;;;5003234;28;20140;-75
2022/12/15 14:29:00;;;;;;;8.70;1.38;;;;;;;;;;5002428;28;20050;-75
2022/12/15 14:31:30;;;;;;;17.55;1.05;;;;;;;;;;5004009;28;20046;-75
2022/12/15 14:34:01;;;;;;;9.63;1.27;;;;;;;;;;5011879;28;20107;-75
2022/12/15 14:36:29;;;;;;;7.93;1.40;;;;;;;;;;5006654;28;20065;-74
2022/12/15 14:38:58;;;;;;;5.95;1.20;;;;;;;;;;5003260;28;20069;-74
2022/12/15 14:41:28;;;;;;;20.50;1.63;;;;;;;;;;5004804;28;20049;-74
2022/12/15 14:43:59;;;;;;;5.55;0.80;;;;;;;;;;5009067;28;20065;-74
2022/12/15 14:46:28;;;;;;;11.82;0.90;;;;;;;;;;5000925;28;20397;-74
2022/12/15 14:48:59;;;;;;;7.53;0.60;;;;;;;;;;5008453;28;20045;-74
2022/12/15 14:51:26;;;;;;;5.13;0.80;;;;;;;;;;5002737;28;20049;-74
2022/12/15 14:53:54;;;;;;;6.82;1.05;;;;;;;;;;5005012;28;20049;-74
2022/12/15 14:56:24;;;;;;;7.88;0.85;;;;;;;;;;5007012;28;20056;-75
2022/12/15 14:58:56;;;;;;;11.23;1.33;;;;;;;;;;5003728;28;20496;-74
2022/12/15 15:01:25;;;;;;;7.85;1.33;;;;;;;;;;5008428;28;20092;-74
2022/12/15 15:04:01;;;;;;;13.05;1.23;;;;;;;;;;5004946;28;20062;-74
2022/12/15 15:06:30;;;;;;;10.68;1.15;;;;;;;;;;5005669;28;20132;-74
2022/12/15 15:09:04;;;;;;;10.63;1.38;;;;;;;;;;4997151;28;20050;-73
2022/12/15 15:11:33;;;;;;;8.27;1.10;;;;;;;;;;5005411;28;20838;-74
2022/12/15 15:14:01;;;;;;;11.15;1.17;;;;;;;;;;5001190;28;20072;-74
2022/12/15 15:16:28;;;;;;;10.77;1.00;;;;;;;;;;5035216;28;20504;-73
2022/12/15 15:18:57;;;;;;;10.57;0.98;;;;;;;;;;5008953;28;20740;-73
2022/12/15 15:21:27;;;;;;;6.10;1.60;;;;;;;;;;5006454;28;20045;-74
2022/12/15 15:24:01;;;;;;;5.65;0.90;;;;;;;;;;5008095;28;20140;-74
2022/12/15 15:26:29;;;;;;;7.85;0.82;;;;;;;;;;5007744;28;20049;-74
2022/12/15 15:28:57;;;;;;;6.80;1.40;;;;;;;;;;5000939;28;20411;-74
2022/12/15 15:31:29;;;;;;;3.33;1.10;;;;;;;;;;5009489;28;20057;-73
2022/12/15 15:33:57;;;;;;;7.95;1.00;;;;;;;;;;5010390;28;20149;-74
2022/12/15 15:36:28;;;;;;;8.15;0.90;;;;;;;;;;5010690;28;20115;-73
2022/12/15 15:38:56;;;;;;;8.38;1.10;;;;;;;;;;5003135;28;20123;-73
2022/12/15 15:41:28;;;;;;;6.72;0.95;;;;;;;;;;5010612;28;20053;-74
2022/12/15 15:43:55;;;;;;;7.28;1.15;;;;;;;;;;5003865;28;20072;-73
2022/12/15 15:46:24;;;;;;;7.47;0.80;;;;;;;;;;5006775;28;20046;-74
2022/12/15 15:48:52;;;;;;;6.18;1.20;;;;;;;;;;5008895;28;20147;-74
2022/12/15 15:51:20;;;;;;;3.67;1.63;;;;;;;;;;5006853;28;20046;-74
2022/12/15 15:53:49;;;;;;;8.60;1.95;;;;;;;;;;5006721;28;20053;-73
2022/12/15 15:56:17;;;;;;;11.40;3.30;;;;;;;;;;5006355;28;20053;-73
2022/12/15 15:58:45;;;;;;;9.23;1.80;;;;;;;;;;5006043;28;20057;-73
2022/12/15 16:01:12;;;;;;;10.68;1.67;;;;;;;;;;5003184;28;20061;-74
2022/12/15 16:03:40;;;;;;;4.57;1.00;;;;;;;;;;5004097;28;20049;-74
2022/12/15 16:06:12;;;;;;;2.60;0.57;;;;;;;;;;5005267;28;20487;-74
2022/12/15 16:08:40;;;;;;;5.47;1.17;;;;;;;;;;5005786;28;20053;-77
2022/12/15 16:11:10;;;;;;;6.97;3.08;;;;;;;;;;4987129;28;20074;-74
2022/12/15 16:13:38;;;;;;;14.65;2.75;;;;;;;;;;4987149;28;20066;-76
2022/12/15 16:16:05;;;;;;;1.00;0.30;;;;;;;;;;4985623;28;20463;-74
2022/12/15 16:18:32;;;;;;;4.85;0.60;;;;;;;;;;4986241;28;20061;-73
2022/12/15 16:21:00;;;;;;;3.25;0.65;;;;;;;;;;4989958;28;20042;-73
2022/12/15 16:23:29;;;;;;;5.53;0.57;;;;;;;;;;4987257;28;20417;-74
2022/12/15 16:25:57;;;;;;;3.90;0.60;;;;;;;;;;4985678;28;20050;-73
2022/12/15 16:28:27;;;;;;;6.13;0.80;;;;;;;;;;4986578;28;20504;-73
2022/12/15 16:30:54;;;;;;;3.42;0.90;;;;;;;;;;4981414;28;20156;-72
2022/12/15 16:33:22;;;;;;;10.82;1.00;;;;;;;;;;4988402;28;20419;-73
2022/12/15 16:35:50;;;;;;;6.32;2.10;;;;;;;;;;5003954;28;20056;-73
2022/12/15 16:38:21;;;;;;;3.70;1.33;;;;;;;;;;4985362;28;20060;-73
2022/12/15 16:40:48;;;;;;;3.17;0.80;;;;;;;;;;4985059;28;20057;-74
2022/12/15 16:43:16;;;;;;;7.53;1.20;;;;;;;;;;4987988;28;20053;-73
2022/12/15 16:45:46;;;;;;;5.60;0.80;;;;;;;;;;4993543;28;20049;-72
2022/12/15 16:48:13;;;;;;;4.82;0.70;;;;;;;;;;4986522;28;20050;-73
2022/12/15 16:50:42;;;;;;;7.82;0.93;;;;;;;;;;4987423;28;20054;-72
2022/12/15 16:53:12;;;;;;;7.22;1.27;;;;;;;;;;4988381;28;20382;-73
2022/12/15 16:55:40;;;;;;;5.28;1.70;;;;;;;;;;4992409;28;20062;-73
2022/12/15 16:58:07;;;;;;;12.25;2.78;;;;;;;;;;4987012;28;20160;-72
2022/12/15 17:00:35;;;;;;;10.88;4.22;;;;;;;;;;4978798;28;20065;-72
2022/12/15 17:03:05;;;;;;;11.68;5.45;;;;;;;;;;4989834;28;20050;-72
2022/12/15 17:05:34;;;;;;;15.07;4.50;;;;;;;;;;4992544;28;20061;-74
2022/12/15 17:08:03;;;;;;;7.97;3.42;;;;;;;;;;4995301;28;20157;-73
2022/12/15 17:10:31;;;;;;;4.95;2.22;;;;;;;;;;4993873;28;20465;-71
2022/12/15 17:13:00;;;;;;;9.40;1.70;;;;;;;;;;4987550;28;20045;-71
2022/12/15 17:15:28;;;;;;;6.30;1.33;;;;;;;;;;4987912;28;20130;-73